Time;durP1;ratioP1;P1;durP2;ratioP2;P2;SDS_P1;SDS_P2;PMS_P1;PMS_P2;Temp;Humidity;BMP_temperature;BMP_pressure;BME280_temperature;BME280_humidity;BME280_pressure;Samples;Min_cycle;Max_cycle;Signal;HPM_P1;HPM_P2
2023/05/16 00:00:34;;;;;;;18.48;13.25;;;12.60;99.90;;;15.53;56.82;97303.28;4975458;28;20046;-47
2023/05/16 00:03:02;;;;;;;22.05;14.27;;;12.60;99.90;;;15.52;56.83;97302.41;4974603;28;20039;-44
2023/05/16 00:05:30;;;;;;;19.38;14.27;;;12.60;99.90;;;15.43;57.01;97295.59;4975357;28;20059;-47
2023/05/16 00:07:57;;;;;;;19.45;14.57;;;12.50;99.90;;;15.35;57.23;97298.44;4958212;28;20039;-46
2023/05/16 00:10:25;;;;;;;22.08;15.23;;;12.40;99.90;;;15.35;57.26;97295.75;4975253;28;20423;-47
2023/05/16 00:12:52;;;;;;;18.52;14.00;;;12.40;99.90;;;15.40;57.03;97297.84;4975671;28;20364;-46
2023/05/16 00:15:21;;;;;;;18.73;14.70;;;12.40;99.90;;;15.33;57.36;97297.81;4973286;28;20046;-44
2023/05/16 00:17:49;;;;;;;20.42;15.68;;;12.40;99.90;;;15.40;57.01;97297.84;4975284;28;20035;-44
2023/05/16 00:20:21;;;;;;;19.13;14.50;;;12.40;99.90;;;15.46;56.83;97305.09;4975082;28;20031;-48
2023/05/16 00:22:49;;;;;;;20.30;15.45;;;12.50;99.90;;;15.41;57.04;97294.97;4975506;28;20079;-46
2023/05/16 00:25:17;;;;;;;20.35;14.90;;;12.50;99.90;;;15.42;56.79;97290.44;4975321;28;20043;-49
2023/05/16 00:27:45;;;;;;;17.65;14.68;;;12.40;99.90;;;15.38;56.79;97299.91;4974957;28;20047;-45
2023/05/16 00:30:13;;;;;;;21.90;16.00;;;12.40;99.90;;;15.39;56.76;97298.88;4958024;28;20062;-47
2023/05/16 00:32:41;;;;;;;22.67;14.57;;;12.40;99.90;;;15.32;56.83;97299.66;4967631;28;20054;-46
2023/05/16 00:35:10;;;;;;;19.65;15.40;;;12.40;99.90;;;15.24;57.21;97294.47;4975236;28;20046;-47
2023/05/16 00:37:38;;;;;;;21.67;16.13;;;12.30;99.90;;;15.25;57.27;97297.97;4974721;28;20483;-45
2023/05/16 00:40:07;;;;;;;20.42;15.70;;;12.30;99.90;;;15.30;56.84;97298.22;4974811;28;20042;-45
2023/05/16 00:42:35;;;;;;;20.15;15.80;;;12.30;99.90;;;15.29;56.95;97302.72;4975102;28;20047;-47
2023/05/16 00:45:05;;;;;;;22.70;16.70;;;12.30;99.90;;;15.19;57.27;97298.78;4957389;28;20046;-47
2023/05/16 00:47:32;;;;;;;20.85;14.93;;;12.30;99.90;;;15.02;57.54;97296.41;4957381;28;20051;-44
2023/05/16 00:50:00;;;;;;;22.80;16.93;;;12.00;99.90;;;15.01;57.56;97304.69;4964654;28;20047;-47
2023/05/16 00:52:29;;;;;;;23.60;18.33;;;12.00;99.90;;;14.88;57.93;97295.50;4975075;28;20526;-46
2023/05/16 00:54:57;;;;;;;26.03;17.90;;;12.00;99.90;;;14.93;57.65;97295.75;4973868;28;20058;-47
2023/05/16 00:57:24;;;;;;;23.90;18.45;;;12.00;99.90;;;14.92;57.75;97301.31;4957813;28;20454;-44
2023/05/16 00:59:53;;;;;;;24.50;18.02;;;12.00;99.90;;;14.94;57.68;97302.75;4957366;28;20042;-45
2023/05/16 01:02:21;;;;;;;23.00;18.13;;;12.00;99.90;;;14.90;57.76;97298.81;4973603;28;20470;-44
2023/05/16 01:04:50;;;;;;;25.90;19.50;;;12.00;99.90;;;14.84;57.79;97298.78;4956741;28;20043;-48
2023/05/16 01:07:18;;;;;;;28.00;18.13;;;11.90;99.90;;;14.80;57.96;97295.69;4956374;28;20042;-47
2023/05/16 01:09:45;;;;;;;26.23;18.95;;;11.90;99.90;;;14.65;58.51;97303.00;4973070;28;20442;-45
2023/05/16 01:12:31;;;;;;;27.80;19.27;;;11.70;99.90;;;14.67;58.14;97300.94;4974618;28;20057;-46
2023/05/16 01:15:20;;;;;;;31.00;20.60;;;11.70;99.90;;;14.64;58.03;97301.34;4968923;28;20411;-44
2023/05/16 01:18:11;;;;;;;25.85;18.63;;;11.70;99.90;;;14.64;58.08;97304.03;4966130;28;20039;-45
2023/05/16 01:20:55;;;;;;;31.73;20.25;;;11.70;99.90;;;14.55;58.39;97303.31;4955834;28;20039;-48
2023/05/16 01:24:08;;;;;;;33.15;21.48;;;11.60;99.90;;;14.47;58.63;97295.41;4956970;28;20043;-45
2023/05/16 01:26:36;;;;;;;29.83;19.92;;;11.60;99.90;;;14.40;58.84;97305.25;4972744;28;20050;-47
2023/05/16 01:29:04;;;;;;;33.43;20.70;;;11.50;99.90;;;14.49;58.56;97315.63;4956873;28;20047;-48
2023/05/16 01:31:32;;;;;;;32.20;20.75;;;11.60;99.90;;;14.52;58.53;97306.34;4973050;28;20062;-48
2023/05/16 01:34:00;;;;;;;32.90;21.93;;;11.50;99.90;;;14.52;58.63;97303.69;4974373;28;20066;-44
2023/05/16 01:37:00;;;;;;;30.55;22.10;;;11.60;99.90;;;14.37;58.87;97307.28;4973844;28;20435;-49
2023/05/16 01:39:46;;;;;;;33.92;22.52;;;11.50;99.90;;;14.44;58.62;97309.19;4956193;28;20499;-44
2023/05/16 01:42:15;;;;;;;37.20;20.85;;;11.60;99.90;;;14.30;59.35;97313.59;4972861;28;20073;-49
2023/05/16 01:45:13;;;;;;;32.85;20.35;;;11.40;99.90;;;14.40;58.93;97308.75;4972554;28;20038;-49
2023/05/16 01:47:46;;;;;;;35.35;21.83;;;11.40;99.90;;;14.38;58.98;97313.47;4973727;28;20050;-46
2023/05/16 01:50:19;;;;;;;32.35;20.88;;;11.50;99.90;;;14.26;59.44;97304.31;4955989;28;20057;-47
2023/05/16 01:53:05;;;;;;;37.17;25.40;;;11.50;99.90;;;14.29;59.41;97314.66;4956493;28;20054;-49
2023/05/16 01:55:45;;;;;;;32.33;21.35;;;11.40;99.90;;;14.22;59.72;97309.22;4972611;28;20077;-49
2023/05/16 01:58:16;;;;;;;36.70;23.40;;;11.40;99.90;;;14.22;59.65;97306.53;4956333;28;20506;-44
2023/05/16 02:00:43;;;;;;;36.20;23.67;;;11.40;99.90;;;14.31;59.33;97307.25;4955552;28;20043;-45
2023/05/16 02:03:11;;;;;;;35.00;22.98;;;11.40;99.90;;;14.29;59.61;97306.59;4973495;28;20074;-47
2023/05/16 02:05:39;;;;;;;34.37;21.37;;;11.50;99.90;;;14.34;59.40;97306.84;4973488;28;20150;-44
2023/05/16 02:08:09;;;;;;;34.80;22.97;;;11.40;99.90;;;14.37;59.46;97309.97;4973620;28;20506;-44
2023/05/16 02:10:38;;;;;;;37.43;24.53;;;11.50;99.90;;;14.45;59.03;97311.69;4971995;28;20046;-44
2023/05/16 02:13:06;;;;;;;38.77;24.80;;;11.60;99.90;;;14.44;59.27;97315.34;4955804;28;20062;-47
2023/05/16 02:15:34;;;;;;;36.78;21.85;;;11.50;99.90;;;14.48;59.13;97310.44;4973161;28;20388;-45
2023/05/16 02:18:02;;;;;;;40.17;24.03;;;11.60;99.90;;;14.41;59.48;97312.25;4955306;28;20050;-45
2023/05/16 02:20:30;;;;;;;39.63;23.23;;;11.50;99.90;;;14.41;59.49;97317.63;4972181;28;20043;-45
2023/05/16 02:22:57;;;;;;;34.42;22.02;;;11.50;99.90;;;14.46;59.34;97317.84;4971621;28;20035;-45
2023/05/16 02:25:25;;;;;;;39.17;25.37;;;11.50;99.90;;;14.40;59.48;97318.63;4955399;28;20042;-47
2023/05/16 02:27:53;;;;;;;41.50;25.55;;;11.50;99.90;;;14.43;59.36;97316.41;4963259;28;20043;-45
2023/05/16 02:30:21;;;;;;;46.97;28.40;;;11.50;99.90;;;14.43;59.67;97313.72;4972668;28;20046;-46
2023/05/16 02:32:48;;;;;;;46.00;26.47;;;11.50;99.90;;;14.49;59.46;97317.47;4948572;28;20054;-47
2023/05/16 02:35:16;;;;;;;42.90;24.50;;;11.50;99.90;;;14.42;59.83;97321.94;4973217;28;20043;-44
2023/05/16 02:37:44;;;;;;;46.17;27.65;;;11.50;99.90;;;14.43;60.00;97318.25;4955902;28;20426;-44
2023/05/16 02:40:12;;;;;;;43.40;26.73;;;11.60;99.90;;;14.48;59.69;97319.34;4972610;28;20043;-44
2023/05/16 02:42:40;;;;;;;45.85;27.33;;;11.60;99.90;;;14.42;60.25;97319.25;4973265;28;20081;-46
2023/05/16 02:45:09;;;;;;;45.38;27.05;;;11.50;99.90;;;14.45;60.33;97317.03;4956037;28;20132;-45
2023/05/16 02:47:36;;;;;;;51.13;29.15;;;11.60;99.90;;;14.50;60.16;97325.31;4954967;28;20438;-44
2023/05/16 02:50:05;;;;;;;50.05;28.85;;;11.60;99.90;;;14.51;60.17;97321.59;4972730;28;20887;-45
2023/05/16 02:52:34;;;;;;;48.10;29.00;;;11.70;99.90;;;14.52;60.24;97320.59;4954705;28;20058;-45
2023/05/16 02:55:02;;;;;;;47.17;29.35;;;11.70;99.90;;;14.61;60.05;97329.34;4972541;28;20043;-48
2023/05/16 02:57:32;;;;;;;51.28;28.98;;;11.70;99.90;;;14.58;60.23;97327.06;4972477;28;20046;-44
2023/05/16 02:59:59;;;;;;;51.97;31.00;;;11.70;99.90;;;14.50;60.54;97328.00;4972004;28;20043;-47
2023/05/16 03:02:27;;;;;;;43.67;26.48;;;11.70;99.90;;;14.51;60.41;97321.59;4971264;28;20045;-45
2023/05/16 03:04:55;;;;;;;57.33;29.63;;;11.70;99.90;;;14.37;61.17;97322.53;4962661;28;20043;-48
2023/05/16 03:07:23;;;;;;;51.78;30.98;;;11.60;99.90;;;14.45;60.68;97330.41;4971007;28;20050;-46
2023/05/16 03:09:50;;;;;;;55.22;29.67;;;11.60;99.90;;;14.37;61.12;97330.56;4970624;28;20063;-46
2023/05/16 03:12:18;;;;;;;53.58;31.05;;;11.60;99.90;;;14.45;60.86;97330.41;4972469;28;20383;-47
2023/05/16 03:14:45;;;;;;;52.22;29.42;;;11.60;99.90;;;14.57;60.59;97333.44;4962546;28;20442;-45
2023/05/16 03:17:13;;;;;;;54.33;31.30;;;11.60;99.90;;;14.54;60.71;97334.63;4969988;28;20034;-45
2023/05/16 03:19:41;;;;;;;54.50;29.73;;;11.70;99.90;;;14.59;60.47;97335.91;4962090;28;20062;-44
2023/05/16 03:22:08;;;;;;;58.80;31.35;;;11.70;99.90;;;14.62;60.54;97332.84;4972274;28;20494;-46
2023/05/16 03:24:36;;;;;;;54.95;31.35;;;11.70;99.90;;;14.56;60.64;97329.94;4962262;28;20054;-48
2023/05/16 03:27:04;;;;;;;54.90;32.30;;;11.60;99.90;;;14.64;60.43;97334.31;4972115;28;20039;-47
2023/05/16 03:29:32;;;;;;;59.13;32.03;;;11.70;99.90;;;14.61;60.53;97337.38;4969975;28;20065;-47
2023/05/16 03:32:00;;;;;;;55.65;31.10;;;11.70;99.90;;;14.21;61.82;97337.03;4972124;28;20396;-49
2023/05/16 03:34:28;;;;;;;56.42;30.55;;;11.50;99.90;;;14.33;61.38;97334.66;4971985;28;20516;-45
2023/05/16 03:36:55;;;;;;;54.83;31.65;;;11.50;99.90;;;14.21;61.88;97334.34;4971901;28;20467;-46
2023/05/16 03:39:23;;;;;;;63.63;34.13;;;11.50;99.90;;;14.28;61.62;97345.91;4954375;28;20529;-46
2023/05/16 03:41:51;;;;;;;58.42;32.65;;;11.50;99.90;;;14.32;61.53;97341.00;4962139;28;20497;-46
2023/05/16 03:44:18;;;;;;;58.78;30.50;;;11.50;99.90;;;14.32;61.50;97341.84;4954908;28;20039;-44
2023/05/16 03:46:46;;;;;;;53.38;30.33;;;11.50;99.90;;;14.39;61.46;97341.91;4971312;28;20054;-46
2023/05/16 03:49:13;;;;;;;59.67;31.77;;;11.50;99.90;;;14.35;61.51;97341.47;4971510;28;20050;-44
2023/05/16 03:51:41;;;;;;;52.27;29.73;;;11.60;99.90;;;14.43;61.24;97337.00;4971764;28;20054;-46
2023/05/16 03:54:08;;;;;;;58.58;32.55;;;11.60;99.90;;;14.47;61.27;97340.94;4971855;28;20462;-46
2023/05/16 03:56:36;;;;;;;56.78;32.08;;;11.60;99.90;;;14.45;61.22;97337.63;4971739;28;20054;-45
2023/05/16 03:59:03;;;;;;;57.03;32.63;;;11.60;99.90;;;14.50;61.03;97340.53;4971410;28;20046;-45
2023/05/16 04:01:31;;;;;;;56.47;33.08;;;11.60;99.90;;;14.45;61.29;97338.47;4971646;28;20051;-45
2023/05/16 04:03:59;;;;;;;59.88;32.42;;;11.60;99.90;;;14.51;61.21;97340.34;4971847;28;20051;-45
2023/05/16 04:06:26;;;;;;;57.95;31.55;;;11.60;99.90;;;14.55;60.95;97346.97;4971735;28;20047;-44
2023/05/16 04:08:54;;;;;;;57.00;32.08;;;11.60;99.90;;;14.41;61.46;97339.06;4970087;28;20047;-45
2023/05/16 04:11:21;;;;;;;56.95;33.00;;;11.50;99.90;;;14.51;61.05;97342.22;4971803;28;20050;-45
2023/05/16 04:13:49;;;;;;;57.08;32.50;;;11.60;99.90;;;14.53;60.99;97348.22;4971465;28;20047;-45
2023/05/16 04:16:16;;;;;;;58.22;33.05;;;11.60;99.90;;;14.41;61.07;97347.09;4971526;28;20042;-45
2023/05/16 04:18:45;;;;;;;55.45;32.17;;;11.50;99.90;;;14.47;61.28;97346.31;4971140;28;20436;-44
2023/05/16 04:21:14;;;;;;;58.95;31.90;;;11.50;99.90;;;14.56;61.04;97343.31;4970723;28;20042;-45
2023/05/16 04:23:41;;;;;;;54.38;33.25;;;11.60;99.90;;;14.46;61.31;97337.44;4971548;28;20053;-46
2023/05/16 04:26:09;;;;;;;59.03;33.50;;;11.60;99.90;;;14.48;61.33;97346.13;4954307;28;20467;-46
2023/05/16 04:28:36;;;;;;;53.95;30.42;;;11.50;99.90;;;14.22;62.22;97348.56;4971186;28;20054;-46
2023/05/16 04:31:04;;;;;;;58.45;33.08;;;11.40;99.90;;;14.30;61.99;97343.88;4971705;28;20074;-45
2023/05/16 04:33:31;;;;;;;59.35;31.83;;;11.40;99.90;;;14.41;61.61;97347.91;4971234;28;20503;-45
2023/05/16 04:35:59;;;;;;;58.65;33.25;;;11.50;99.90;;;14.52;61.36;97351.88;4954313;28;20046;-44
2023/05/16 04:38:27;;;;;;;59.08;34.13;;;11.60;99.90;;;14.53;61.37;97354.38;4971539;28;20062;-45
2023/05/16 04:40:54;;;;;;;55.38;32.33;;;11.60;99.90;;;14.42;61.59;97354.91;4965966;28;20553;-45
2023/05/16 04:43:22;;;;;;;57.20;31.30;;;11.50;99.90;;;14.50;61.51;97360.16;4975199;28;20047;-44
2023/05/16 04:45:49;;;;;;;60.50;34.15;;;11.60;99.90;;;14.47;61.27;97360.53;4974572;28;20105;-45
2023/05/16 04:48:17;;;;;;;60.38;30.80;;;11.60;99.90;;;14.44;61.55;97355.53;4974838;28;20387;-45
2023/05/16 04:50:44;;;;;;;56.55;31.90;;;11.60;99.90;;;14.37;61.99;97362.69;4974951;28;20050;-44
2023/05/16 04:53:13;;;;;;;58.88;31.48;;;11.50;99.90;;;14.53;61.54;97365.09;4973426;28;20047;-47
2023/05/16 04:55:41;;;;;;;58.28;33.92;;;11.60;99.90;;;14.25;62.19;97373.09;4974639;28;20414;-45
2023/05/16 04:58:09;;;;;;;57.67;32.65;;;11.50;99.90;;;14.23;62.45;97369.78;4965621;28;20383;-45
2023/05/16 05:00:37;;;;;;;57.90;32.92;;;11.40;99.90;;;14.18;62.59;97372.19;4974202;28;20043;-46
2023/05/16 05:03:05;;;;;;;54.55;31.55;;;11.40;99.90;;;14.14;62.63;97371.75;4957238;28;20042;-44
2023/05/16 05:05:33;;;;;;;52.60;30.30;;;11.40;99.90;;;14.23;62.50;97374.28;4972448;28;20050;-44
2023/05/16 05:08:01;;;;;;;55.35;31.25;;;11.40;99.90;;;14.46;61.92;97376.78;4974462;28;20418;-45
2023/05/16 05:10:30;;;;;;;49.42;30.05;;;11.60;99.90;;;14.54;61.69;97387.38;4974255;28;20046;-49
2023/05/16 05:12:57;;;;;;;51.15;28.88;;;11.60;99.90;;;14.25;62.40;97381.13;4974595;28;20054;-44
2023/05/16 05:15:25;;;;;;;57.08;32.15;;;11.50;99.90;;;14.44;61.94;97390.34;4974758;28;20491;-44
2023/05/16 05:17:53;;;;;;;51.53;29.30;;;11.50;99.90;;;14.48;61.83;97393.47;4974182;28;20043;-45
2023/05/16 05:20:21;;;;;;;48.10;29.83;;;11.60;99.90;;;14.46;61.82;97400.88;4956319;28;20050;-44
2023/05/16 05:22:48;;;;;;;51.00;31.23;;;11.50;99.90;;;14.26;62.26;97395.34;4974040;28;20490;-46
2023/05/16 05:25:16;;;;;;;48.22;29.05;;;11.40;99.90;;;14.31;62.15;97403.63;4974340;28;20043;-45
2023/05/16 05:27:43;;;;;;;47.30;27.35;;;11.40;99.90;;;14.43;61.90;97403.97;4974009;28;20053;-44
2023/05/16 05:30:11;;;;;;;48.00;28.00;;;11.50;99.90;;;14.26;62.19;97412.22;4974118;28;20042;-44
2023/05/16 05:32:39;;;;;;;42.15;26.52;;;11.50;99.90;;;14.35;62.00;97405.72;4956030;28;20058;-44
2023/05/16 05:35:06;;;;;;;48.83;26.70;;;11.50;99.90;;;14.24;62.53;97400.06;4974134;28;20055;-45
2023/05/16 05:37:35;;;;;;;48.28;28.55;;;11.40;99.90;;;14.22;62.47;97402.09;4956493;28;20062;-44
2023/05/16 05:40:03;;;;;;;53.10;30.85;;;11.40;99.90;;;14.31;62.07;97409.00;4973739;28;20498;-44
2023/05/16 05:42:30;;;;;;;50.30;27.60;;;11.40;99.90;;;14.42;62.04;97404.97;4973867;28;20046;-45
2023/05/16 05:44:58;;;;;;;46.95;28.83;;;11.50;99.90;;;14.44;61.81;97409.09;4974083;28;20042;-43
2023/05/16 05:47:25;;;;;;;52.15;29.02;;;11.50;99.90;;;14.34;62.11;97408.59;4973628;28;20035;-44
2023/05/16 05:49:53;;;;;;;50.25;28.13;;;11.50;99.90;;;14.52;61.67;97414.34;4973533;28;20065;-44
2023/05/16 05:52:20;;;;;;;49.25;29.38;;;11.60;99.90;;;14.40;62.11;97405.16;4972846;28;20115;-44
2023/05/16 05:54:48;;;;;;;49.50;27.25;;;11.60;99.90;;;14.40;61.96;97407.81;4973722;28;20070;-46
2023/05/16 05:57:15;;;;;;;47.60;27.33;;;11.60;99.90;;;14.49;61.77;97404.00;4973489;28;20053;-45
2023/05/16 05:59:43;;;;;;;45.15;28.63;;;11.60;99.90;;;14.61;61.61;97409.72;4973385;28;20049;-44
2023/05/16 06:02:11;;;;;;;45.22;27.05;;;11.70;99.90;;;14.43;62.02;97403.97;4973523;28;20506;-44
2023/05/16 06:04:38;;;;;;;46.65;26.17;;;11.60;99.90;;;14.33;62.35;97404.28;4972093;28;20077;-45
2023/05/16 06:07:06;;;;;;;43.78;26.50;;;11.50;99.90;;;14.29;62.42;97409.19;4973372;28;20039;-44
2023/05/16 06:09:33;;;;;;;45.92;27.40;;;11.50;99.90;;;13.97;63.46;97402.44;4973219;28;20042;-46
2023/05/16 06:12:02;;;;;;;44.22;26.88;;;11.40;99.90;;;14.17;62.88;97406.19;4973211;28;20491;-45
2023/05/16 06:14:30;;;;;;;42.17;25.30;;;11.40;99.90;;;14.18;63.00;97399.78;4973319;28;20055;-48
2023/05/16 06:16:57;;;;;;;44.22;25.77;;;11.40;99.90;;;14.35;62.61;97403.06;4969128;28;20050;-46
2023/05/16 06:19:25;;;;;;;41.50;24.55;;;11.50;99.90;;;14.28;62.81;97417.41;4973073;28;20494;-49
2023/05/16 06:21:53;;;;;;;41.70;26.10;;;11.50;99.90;;;14.27;62.89;97415.72;4973197;28;20061;-45
2023/05/16 06:24:20;;;;;;;42.80;26.02;;;11.50;99.90;;;14.33;62.55;97417.66;4973086;28;20042;-45
2023/05/16 06:26:48;;;;;;;43.55;26.25;;;11.50;99.90;;;14.47;62.39;97414.09;4973005;28;20039;-46
2023/05/16 06:29:16;;;;;;;42.10;24.27;;;11.60;99.90;;;14.68;61.90;97425.84;4972672;28;20054;-45
2023/05/16 06:31:46;;;;;;;38.00;23.63;;;11.80;99.90;;;14.30;62.71;97431.41;4973118;28;20498;-46
2023/05/16 06:34:13;;;;;;;38.17;24.23;;;11.60;99.90;;;14.29;62.73;97429.78;4963834;28;20046;-46
2023/05/16 06:36:41;;;;;;;37.40;22.05;;;11.50;99.90;;;14.23;62.79;97428.69;4972628;28;20101;-45
2023/05/16 06:39:09;;;;;;;38.13;24.08;;;11.40;99.90;;;14.12;63.07;97431.84;4972754;28;20050;-46
2023/05/16 06:41:37;;;;;;;37.00;22.25;;;11.40;99.90;;;14.06;63.48;97430.75;4972721;28;20054;-48
2023/05/16 06:44:05;;;;;;;39.23;23.67;;;11.40;99.90;;;14.07;63.54;97428.91;4972841;28;20035;-48
2023/05/16 06:46:32;;;;;;;35.70;21.88;;;11.40;99.90;;;13.83;63.97;97440.78;4972700;28;20506;-46
2023/05/16 06:49:00;;;;;;;36.70;23.25;;;11.30;99.90;;;13.94;63.78;97437.63;4971880;28;20043;-46
2023/05/16 06:51:27;;;;;;;36.38;22.00;;;11.40;99.90;;;14.12;63.39;97439.88;4972874;28;20384;-48
2023/05/16 06:53:55;;;;;;;34.63;22.02;;;11.40;99.90;;;13.98;63.60;97436.22;4972501;28;20529;-44
2023/05/16 06:56:23;;;;;;;35.17;21.45;;;11.30;99.90;;;14.02;63.61;97432.16;4972644;28;20050;-48
2023/05/16 06:58:50;;;;;;;33.55;21.17;;;11.40;99.90;;;14.21;63.06;97440.59;4972225;28;20662;-45
2023/05/16 07:01:18;;;;;;;36.50;22.38;;;11.50;99.90;;;14.34;62.92;97446.09;4972557;28;20494;-44
2023/05/16 07:03:45;;;;;;;37.17;22.55;;;11.60;99.90;;;14.45;62.75;97445.59;4972363;28;20049;-47
2023/05/16 07:06:13;;;;;;;37.63;22.88;;;11.70;99.90;;;14.34;63.20;97452.25;4972343;28;20046;-47
2023/05/16 07:08:41;;;;;;;38.15;23.20;;;11.60;99.90;;;14.40;62.96;97452.53;4972129;28;20050;-46
2023/05/16 07:11:10;;;;;;;30.95;21.55;;;11.60;99.90;;;14.28;63.17;97453.03;4955048;28;20111;-46
2023/05/16 07:13:37;;;;;;;37.53;21.92;;;11.40;99.90;;;14.43;62.74;97461.03;4972634;28;20043;-46
2023/05/16 07:16:07;;;;;;;37.47;21.55;;;11.50;99.90;;;14.46;62.63;97462.47;4972625;28;20047;-45
2023/05/16 07:18:34;;;;;;;37.42;22.65;;;11.50;99.90;;;14.47;62.57;97456.94;4971054;28;20054;-47
2023/05/16 07:21:02;;;;;;;33.28;20.05;;;11.50;99.90;;;14.41;62.58;97454.22;4972098;28;20050;-46
2023/05/16 07:23:30;;;;;;;35.58;21.60;;;11.40;99.90;;;14.51;62.44;97460.88;4972487;28;20054;-47
2023/05/16 07:25:58;;;;;;;39.97;20.63;;;11.60;99.90;;;14.43;62.66;97461.03;4972357;28;20043;-50
2023/05/16 07:28:25;;;;;;;36.92;21.63;;;11.60;99.90;;;14.52;62.43;97464.38;4972349;28;20049;-47
2023/05/16 07:30:53;;;;;;;39.28;21.77;;;11.60;99.90;;;14.50;62.67;97464.59;4972264;28;20047;-50
2023/05/16 07:33:21;;;;;;;34.17;21.55;;;11.60;99.90;;;14.33;62.96;97469.38;4972470;28;20062;-44
2023/05/16 07:35:48;;;;;;;34.25;20.90;;;11.60;99.90;;;14.35;63.06;97458.47;4972204;28;20054;-49
2023/05/16 07:38:17;;;;;;;34.30;20.15;;;11.50;99.90;;;14.55;62.91;97467.53;4971007;28;20067;-47
2023/05/16 07:40:44;;;;;;;34.95;21.58;;;11.60;99.90;;;14.54;62.64;97476.59;4972102;28;20426;-47
2023/05/16 07:43:12;;;;;;;32.92;20.05;;;11.60;99.90;;;14.56;62.61;97474.59;4972299;28;20070;-50
2023/05/16 07:45:40;;;;;;;32.70;19.63;;;11.60;99.90;;;14.59;62.26;97469.88;4972195;28;20541;-44
2023/05/16 07:48:07;;;;;;;26.75;19.83;;;11.70;99.90;;;14.60;62.28;97477.72;4970944;28;20039;-44
2023/05/16 07:50:36;;;;;;;32.33;19.67;;;11.70;99.90;;;14.77;61.68;97476.44;4971758;28;20083;-46
2023/05/16 07:53:03;;;;;;;30.38;19.00;;;11.80;99.90;;;14.85;61.64;97471.94;4971969;28;20051;-48
2023/05/16 07:55:31;;;;;;;30.58;18.30;;;11.90;99.90;;;14.83;61.56;97477.53;4972076;28;20343;-49
2023/05/16 07:57:58;;;;;;;36.63;19.63;;;11.90;99.90;;;14.64;61.91;97486.22;4970228;28;20050;-48
2023/05/16 08:00:26;;;;;;;28.75;16.65;;;11.80;99.90;;;14.46;62.31;97486.59;4971516;28;20522;-49
2023/05/16 08:02:54;;;;;;;25.88;16.70;;;11.60;99.90;;;14.60;62.12;97485.75;4971668;28;20051;-45
2023/05/16 08:05:22;;;;;;;26.67;17.08;;;11.60;99.90;;;14.55;61.92;97486.28;4970397;28;20050;-46
2023/05/16 08:07:50;;;;;;;26.25;16.30;;;11.60;99.90;;;14.60;62.16;97492.94;4971598;28;20043;-45
2023/05/16 08:10:17;;;;;;;21.67;14.32;;;11.60;99.90;;;14.67;61.96;97485.81;4971481;28;20041;-47
2023/05/16 08:12:46;;;;;;;25.27;16.00;;;11.60;99.90;;;14.72;61.71;97488.75;4971526;28;20051;-47
2023/05/16 08:15:14;;;;;;;26.35;16.58;;;11.70;99.90;;;14.69;61.80;97487.25;4973521;28;20050;-47
2023/05/16 08:17:43;;;;;;;22.17;14.85;;;11.70;99.90;;;14.49;62.27;97487.03;4975291;28;20529;-45
2023/05/16 08:20:11;;;;;;;29.10;17.45;;;11.60;99.90;;;14.20;63.02;97489.81;4975175;28;20053;-48
2023/05/16 08:22:39;;;;;;;25.92;14.13;;;11.40;99.90;;;14.20;63.18;97489.81;4974638;28;20054;-48
2023/05/16 08:25:07;;;;;;;26.73;16.45;;;11.30;99.90;;;14.18;63.15;97493.50;4967500;28;20043;-47
2023/05/16 08:27:35;;;;;;;28.00;16.92;;;11.30;99.90;;;14.15;63.51;97491.19;4975308;28;20525;-46
2023/05/16 08:30:03;;;;;;;31.00;18.23;;;11.30;99.90;;;14.09;63.32;97493.78;4974963;28;20039;-47
2023/05/16 08:32:31;;;;;;;27.10;17.45;;;11.30;99.90;;;13.91;63.90;97496.84;4975062;28;20525;-46
2023/05/16 08:34:59;;;;;;;32.40;17.33;;;11.20;99.90;;;14.18;63.46;97496.16;4975208;28;20516;-46
2023/05/16 08:37:27;;;;;;;27.73;16.75;;;11.40;99.90;;;14.33;62.93;97489.97;4975012;28;20043;-44
2023/05/16 08:39:54;;;;;;;28.33;17.98;;;11.50;99.90;;;14.17;63.16;97491.00;4974811;28;20426;-48
2023/05/16 08:42:22;;;;;;;28.38;18.17;;;11.50;99.90;;;14.45;62.85;97485.75;4957852;28;20411;-47
2023/05/16 08:44:50;;;;;;;31.15;18.23;;;11.60;99.90;;;14.52;62.68;97493.84;4974686;28;20047;-45
2023/05/16 08:47:20;;;;;;;28.92;18.38;;;11.70;99.90;;;14.54;62.54;97490.00;4974930;28;20106;-48
2023/05/16 08:49:51;;;;;;;27.83;18.77;;;11.80;99.90;;;14.62;62.24;97493.56;4974414;28;20050;-46
2023/05/16 08:52:22;;;;;;;29.02;16.58;;;11.80;99.90;;;14.67;62.14;97494.66;4974993;28;20107;-48
2023/05/16 08:54:50;;;;;;;31.13;17.45;;;11.80;99.90;;;14.65;62.22;97496.72;4964850;28;20059;-49
2023/05/16 08:57:37;;;;;;;32.53;17.52;;;11.80;99.90;;;14.87;61.95;97497.56;4974691;28;20054;-44
2023/05/16 09:00:10;;;;;;;29.25;15.32;;;11.90;99.90;;;14.83;61.99;97498.13;4957276;28;20058;-46
2023/05/16 09:02:40;;;;;;;24.08;15.85;;;12.00;99.90;;;14.95;61.86;97500.09;4973223;28;20495;-44
2023/05/16 09:05:12;;;;;;;28.42;17.98;;;12.10;99.90;;;15.07;61.45;97505.78;4974658;28;20042;-46
2023/05/16 09:07:41;;;;;;;27.75;16.25;;;12.30;99.90;;;15.18;61.18;97499.06;4974495;28;20092;-46
2023/05/16 09:10:10;;;;;;;28.15;18.30;;;12.30;99.90;;;15.19;61.00;97500.72;4974526;28;20423;-47
2023/05/16 09:12:40;;;;;;;26.13;16.92;;;12.40;99.90;;;15.20;61.26;97513.09;4974700;28;20515;-46
2023/05/16 09:15:10;;;;;;;26.27;16.08;;;12.40;99.90;;;15.34;60.95;97516.72;4974611;28;20491;-45
2023/05/16 09:17:45;;;;;;;26.77;15.32;;;12.50;99.90;;;15.26;60.87;97508.81;4953745;28;20047;-45
2023/05/16 09:20:18;;;;;;;26.73;15.48;;;12.40;99.90;;;15.28;60.75;97510.28;4974171;28;20034;-45
2023/05/16 09:22:53;;;;;;;31.05;17.75;;;12.40;99.90;;;15.21;60.89;97506.69;4974532;28;20061;-45
2023/05/16 09:25:24;;;;;;;25.95;16.70;;;12.30;99.90;;;15.43;60.72;97515.56;4974399;28;20494;-45
2023/05/16 09:28:00;;;;;;;24.25;15.40;;;12.50;99.90;;;15.38;60.64;97517.97;4973447;28;20043;-48
2023/05/16 09:30:32;;;;;;;25.65;15.25;;;12.40;99.90;;;15.04;61.37;97513.38;4974134;28;20043;-48
2023/05/16 09:33:00;;;;;;;22.40;14.82;;;12.20;99.90;;;15.22;60.99;97515.56;4973970;28;20049;-47
2023/05/16 09:35:30;;;;;;;22.58;13.85;;;12.30;99.90;;;15.31;60.68;97517.91;4974269;28;20058;-47
2023/05/16 09:38:16;;;;;;;19.60;12.90;;;12.40;99.90;;;15.19;61.06;97514.13;4966388;28;20517;-45
2023/05/16 09:40:45;;;;;;;21.23;12.80;;;12.30;99.90;;;15.26;60.65;97515.00;4957061;28;20057;-44
2023/05/16 09:43:16;;;;;;;21.58;14.07;;;12.40;99.90;;;15.30;60.57;97512.78;4973923;28;20495;-46
2023/05/16 09:45:47;;;;;;;22.10;13.63;;;12.40;99.90;;;15.30;60.57;97507.41;4973607;28;20051;-45
2023/05/16 09:48:16;;;;;;;21.83;13.02;;;12.40;99.90;;;15.33;60.61;97507.84;4972387;28;20047;-46
2023/05/16 09:50:51;;;;;;;17.67;11.20;;;12.50;99.90;;;15.40;60.48;97510.56;4973637;28;20075;-49
2023/05/16 09:53:27;;;;;;;21.10;11.05;;;12.50;99.90;;;15.43;60.32;97512.03;4967133;28;20039;-47
2023/05/16 09:56:12;;;;;;;19.58;11.57;;;12.60;99.90;;;15.43;60.11;97512.88;4972397;28;20043;-45
2023/05/16 09:58:42;;;;;;;20.65;11.82;;;12.70;99.90;;;15.51;59.94;97514.59;4973358;28;20046;-46
2023/05/16 10:01:12;;;;;;;18.75;12.05;;;12.60;99.90;;;15.61;59.71;97519.59;4974001;28;20039;-48
2023/05/16 10:03:41;;;;;;;16.42;11.05;;;12.60;99.90;;;15.67;59.38;97516.13;4972480;28;20420;-46
2023/05/16 10:06:11;;;;;;;17.25;10.05;;;12.70;99.90;;;15.66;59.05;97517.97;4973053;28;20077;-44
2023/05/16 10:08:42;;;;;;;17.08;9.82;;;12.70;99.90;;;15.50;59.19;97508.38;4973338;28;20043;-45
2023/05/16 10:11:10;;;;;;;15.15;8.73;;;12.50;99.90;;;15.56;59.20;97512.94;4973422;28;20419;-49
2023/05/16 10:13:38;;;;;;;15.82;9.38;;;12.50;99.90;;;15.51;59.11;97515.41;4972210;28;20042;-45